createdAt,value
2023-05-09T00:01:20.631Z,16.60
2023-05-09T00:03:47.531Z,16.60
2023-05-09T00:06:15.374Z,16.60
2023-05-09T00:08:42.038Z,16.50
2023-05-09T00:11:08.765Z,16.50
2023-05-09T00:13:35.782Z,16.50
2023-05-09T00:46:42.077Z,16.30
2023-05-09T00:49:08.840Z,16.30
2023-05-09T00:51:37.457Z,16.30
2023-05-09T00:54:05.555Z,16.30
2023-05-09T00:56:33.120Z,16.30
2023-05-09T00:59:00.167Z,16.30
2023-05-09T01:01:27.144Z,16.30
2023-05-09T01:03:55.112Z,16.30
2023-05-09T01:07:01.301Z,16.20
2023-05-09T01:09:55.363Z,16.20
2023-05-09T01:12:40.446Z,16.20
2023-05-09T01:15:25.179Z,16.20
2023-05-09T01:17:59.753Z,16.20
2023-05-09T01:20:35.742Z,16.20
2023-05-09T01:23:28.157Z,16.20
2023-05-09T01:26:36.989Z,16.20
2023-05-09T01:29:33.889Z,16.10
2023-05-09T01:32:06.303Z,16.10
2023-05-09T01:34:35.112Z,16.10
2023-05-09T01:37:03.776Z,16.10
2023-05-09T01:39:32.819Z,16.10
2023-05-09T01:42:03.336Z,16.10
2023-05-09T01:44:35.689Z,16.10
2023-05-09T01:47:03.850Z,16.10
2023-05-09T01:49:33.771Z,16.10
2023-05-09T01:52:03.666Z,16.10
2023-05-09T01:54:31.237Z,16.10
2023-05-09T01:56:58.886Z,16.10
2023-05-09T01:59:27.126Z,16.10
2023-05-09T02:01:55.175Z,16.10
2023-05-09T02:04:22.867Z,16.10
2023-05-09T02:06:51.445Z,16.10
2023-05-09T02:09:19.372Z,16.10
2023-05-09T02:11:46.919Z,16.10
2023-05-09T02:14:13.937Z,16.10
2023-05-09T02:16:41.063Z,16.10
2023-05-09T02:19:07.965Z,16.10
2023-05-09T02:21:34.735Z,16.10
2023-05-09T02:24:01.571Z,16.10
2023-05-09T02:26:28.864Z,16.00
2023-05-09T02:28:55.942Z,16.10
2023-05-09T02:31:25.821Z,16.10
2023-05-09T02:33:54.117Z,16.10
2023-05-09T02:36:22.188Z,16.00
2023-05-09T02:38:48.960Z,16.00
2023-05-09T02:41:16.517Z,16.00
2023-05-09T02:43:43.288Z,16.00
2023-05-09T02:46:10.442Z,16.00
2023-05-09T02:48:37.501Z,15.90
2023-05-09T02:51:04.433Z,15.90
2023-05-09T02:53:31.199Z,15.90
2023-05-09T02:55:58.583Z,15.90
2023-05-09T02:58:25.397Z,15.90
2023-05-09T03:00:52.056Z,15.90
2023-05-09T03:03:19.170Z,16.00
2023-05-09T03:05:46.377Z,16.00
2023-05-09T03:08:13.135Z,16.00
2023-05-09T03:10:39.937Z,15.90
2023-05-09T03:13:06.622Z,15.90
2023-05-09T03:15:33.320Z,15.90
2023-05-09T03:18:00.188Z,15.90
2023-05-09T03:20:27.724Z,15.90
2023-05-09T03:22:54.404Z,16.00
2023-05-09T03:25:21.235Z,16.00
2023-05-09T03:27:47.938Z,16.00
2023-05-09T03:30:15.023Z,15.90
2023-05-09T03:32:41.757Z,15.90
2023-05-09T03:35:08.549Z,15.90
2023-05-09T03:37:35.218Z,15.70
2023-05-09T03:40:01.898Z,15.70
2023-05-09T03:42:28.543Z,15.80
2023-05-09T03:44:55.162Z,15.80
2023-05-09T03:47:21.746Z,15.80
2023-05-09T03:49:49.192Z,15.80
2023-05-09T03:52:15.972Z,15.80
2023-05-09T03:54:42.655Z,15.80
2023-05-09T03:57:09.301Z,15.80
2023-05-09T03:59:35.976Z,15.80
2023-05-09T04:02:03.380Z,15.80
2023-05-09T04:04:30.074Z,15.70
2023-05-09T04:06:57.026Z,15.70
2023-05-09T04:09:23.743Z,15.80
2023-05-09T04:11:50.369Z,15.80
2023-05-09T04:14:17.077Z,15.70
2023-05-09T04:16:43.733Z,15.70
2023-05-09T04:19:10.651Z,15.70
2023-05-09T04:21:37.569Z,15.70
2023-05-09T04:24:04.285Z,15.70
2023-05-09T04:26:31.349Z,15.70
2023-05-09T04:28:58.021Z,15.70
2023-05-09T04:31:24.890Z,15.60
2023-05-09T04:33:52.133Z,15.60
2023-05-09T04:36:18.735Z,15.60
2023-05-09T04:38:45.439Z,15.60
2023-05-09T04:41:12.100Z,15.60
2023-05-09T04:43:39.348Z,15.70
2023-05-09T04:46:06.182Z,15.60
2023-05-09T04:48:32.828Z,15.60
2023-05-09T04:50:59.410Z,15.70
2023-05-09T04:53:26.707Z,15.70
2023-05-09T04:55:53.388Z,15.60
2023-05-09T04:58:20.258Z,15.70
2023-05-09T05:00:47.566Z,15.70
2023-05-09T05:03:14.199Z,15.80
2023-05-09T05:05:41.661Z,15.70
2023-05-09T05:08:08.461Z,15.80
2023-05-09T05:10:35.525Z,15.80
2023-05-09T05:13:02.418Z,15.80
2023-05-09T05:15:29.122Z,15.90
2023-05-09T05:17:55.883Z,16.00
2023-05-09T05:20:22.514Z,16.00
2023-05-09T05:22:49.249Z,16.00
2023-05-09T05:25:17.758Z,16.00
2023-05-09T05:27:44.515Z,16.00
2023-05-09T05:30:11.718Z,16.10
2023-05-09T05:32:38.604Z,16.00
2023-05-09T05:35:05.871Z,16.10
2023-05-09T05:37:32.498Z,16.20
2023-05-09T05:39:59.144Z,16.30
2023-05-09T05:42:25.793Z,16.30
2023-05-09T05:44:52.405Z,16.30
2023-05-09T05:47:19.024Z,16.20
2023-05-09T05:49:46.086Z,16.20
2023-05-09T05:52:12.726Z,16.30
2023-05-09T05:54:39.475Z,16.30
2023-05-09T05:57:06.087Z,16.40
2023-05-09T05:59:32.686Z,16.40
2023-05-09T06:01:59.386Z,16.40
2023-05-09T06:04:26.121Z,16.40
2023-05-09T06:06:52.869Z,16.40
2023-05-09T06:09:19.558Z,16.40
2023-05-09T06:11:46.391Z,16.40
2023-05-09T06:14:13.100Z,16.40
2023-05-09T06:16:39.839Z,16.40
2023-05-09T06:19:06.538Z,16.30
2023-05-09T06:21:34.368Z,16.30
2023-05-09T06:24:08.531Z,16.30
2023-05-09T06:26:38.947Z,16.30
2023-05-09T06:29:08.737Z,16.40
2023-05-09T06:31:38.530Z,16.40
2023-05-09T06:34:06.152Z,16.50
2023-05-09T06:36:33.362Z,16.50
2023-05-09T06:39:00.324Z,16.60
2023-05-09T06:41:27.016Z,16.60
2023-05-09T06:43:53.711Z,16.60
2023-05-09T06:46:20.498Z,16.60
2023-05-09T06:48:47.142Z,16.60
2023-05-09T06:51:13.770Z,16.60
2023-05-09T06:53:40.391Z,16.60
2023-05-09T06:56:07.070Z,16.70
2023-05-09T06:58:33.746Z,16.70
2023-05-09T07:01:00.396Z,16.70
2023-05-09T07:03:27.084Z,16.80
2023-05-09T07:05:55.171Z,16.80
2023-05-09T07:08:21.795Z,16.80
2023-05-09T07:10:48.471Z,16.80
2023-05-09T07:13:15.153Z,16.80
2023-05-09T07:15:43.119Z,16.80
2023-05-09T07:18:10.175Z,16.70
2023-05-09T07:20:37.044Z,16.80
2023-05-09T07:23:04.476Z,16.80
2023-05-09T07:25:31.408Z,16.80
2023-05-09T07:27:58.589Z,16.80
2023-05-09T07:30:25.378Z,16.80
2023-05-09T07:32:52.389Z,16.90
2023-05-09T07:35:19.829Z,16.90
2023-05-09T07:37:46.715Z,17.00
2023-05-09T07:40:14.058Z,17.00
2023-05-09T07:42:40.908Z,16.90
2023-05-09T07:45:08.041Z,17.00
2023-05-09T07:47:34.850Z,16.90
2023-05-09T07:50:01.574Z,16.80
2023-05-09T07:52:29.208Z,16.80
2023-05-09T07:54:55.890Z,16.80
2023-05-09T07:57:22.960Z,16.70
2023-05-09T07:59:49.602Z,16.70
2023-05-09T08:02:16.251Z,16.70
2023-05-09T08:04:43.821Z,16.70
2023-05-09T08:07:11.667Z,16.70
2023-05-09T08:09:38.307Z,16.80
2023-05-09T08:12:05.504Z,16.90
2023-05-09T08:14:32.268Z,16.90
2023-05-09T08:16:58.912Z,16.90
2023-05-09T08:19:26.275Z,16.90
2023-05-09T08:21:53.348Z,16.80
2023-05-09T08:24:20.247Z,16.80
2023-05-09T08:26:47.054Z,16.80
2023-05-09T08:29:13.762Z,16.90
2023-05-09T08:31:41.074Z,16.90
2023-05-09T08:34:07.797Z,16.80
2023-05-09T08:36:34.447Z,16.80
2023-05-09T08:39:02.361Z,16.80
2023-05-09T08:41:29.709Z,16.80
2023-05-09T08:43:56.426Z,16.80
2023-05-09T08:46:30.875Z,16.90
2023-05-09T08:48:58.526Z,16.90
2023-05-09T08:51:25.578Z,16.90
2023-05-09T08:53:52.420Z,16.90
2023-05-09T08:56:19.498Z,17.00
2023-05-09T08:58:46.624Z,17.10
2023-05-09T09:01:14.411Z,17.10
2023-05-09T09:03:47.562Z,17.10
2023-05-09T09:06:14.419Z,17.20
2023-05-09T09:08:41.909Z,17.10
2023-05-09T09:11:12.215Z,17.00
2023-05-09T09:13:41.150Z,17.00
2023-05-09T09:16:18.040Z,16.80
2023-05-09T09:18:46.026Z,16.90
2023-05-09T09:21:16.196Z,16.90
2023-05-09T09:23:44.394Z,16.90
2023-05-09T09:26:11.077Z,17.00
2023-05-09T09:28:37.671Z,17.00
2023-05-09T09:31:20.074Z,17.00
2023-05-09T09:33:47.141Z,17.00
2023-05-09T09:36:13.750Z,17.00
2023-05-09T09:38:43.614Z,16.90
2023-05-09T09:41:12.361Z,17.00
2023-05-09T09:43:39.185Z,17.10
2023-05-09T09:46:06.410Z,17.10
2023-05-09T09:48:34.966Z,17.10
2023-05-09T09:51:10.449Z,17.10
2023-05-09T09:53:41.502Z,17.20
2023-05-09T09:56:09.093Z,17.20
2023-05-09T09:58:36.186Z,17.20
2023-05-09T10:01:07.274Z,17.20
2023-05-09T10:03:41.823Z,17.30
2023-05-09T10:06:13.399Z,17.20
2023-05-09T10:08:40.746Z,17.10
2023-05-09T10:11:07.393Z,17.10
2023-05-09T10:13:36.286Z,17.00
2023-05-09T10:16:04.262Z,17.00
2023-05-09T10:18:32.033Z,17.10
2023-05-09T10:21:04.062Z,17.10
2023-05-09T10:23:32.687Z,17.10
2023-05-09T10:26:28.620Z,17.10
2023-05-09T10:28:58.214Z,17.00
2023-05-09T10:31:31.450Z,17.00
2023-05-09T10:34:05.401Z,17.00
2023-05-09T10:36:32.544Z,16.90
2023-05-09T10:39:00.531Z,16.90
2023-05-09T10:41:27.813Z,16.90
2023-05-09T10:43:59.192Z,16.90
2023-05-09T10:46:27.465Z,16.90
2023-05-09T10:48:54.525Z,16.90
2023-05-09T10:51:21.667Z,16.90
2023-05-09T10:53:50.413Z,17.00
2023-05-09T10:56:27.365Z,17.00
2023-05-09T10:58:54.635Z,17.00
2023-05-09T11:01:35.399Z,17.00
2023-05-09T11:04:12.712Z,17.10
2023-05-09T11:06:45.508Z,17.10
2023-05-09T11:09:33.766Z,17.10
2023-05-09T11:12:14.096Z,17.20
2023-05-09T11:14:44.872Z,17.20
2023-05-09T11:17:27.559Z,17.20
2023-05-09T11:19:59.959Z,17.20
2023-05-09T11:22:28.919Z,17.10
2023-05-09T11:25:07.683Z,17.10
2023-05-09T11:27:39.591Z,17.00
2023-05-09T11:30:08.335Z,16.90
2023-05-09T11:32:42.578Z,17.00
2023-05-09T11:35:21.296Z,17.00
2023-05-09T11:37:49.754Z,17.00
2023-05-09T11:40:18.574Z,17.10
2023-05-09T11:42:55.466Z,17.00
2023-05-09T11:45:26.855Z,17.00
2023-05-09T11:47:54.058Z,17.10
2023-05-09T11:50:21.711Z,17.10
2023-05-09T11:52:49.133Z,17.10
2023-05-09T11:55:22.565Z,17.20
2023-05-09T11:57:52.201Z,17.10
2023-05-09T12:00:21.022Z,17.10
2023-05-09T12:02:49.117Z,17.10
2023-05-09T12:05:18.580Z,17.10
2023-05-09T12:07:46.062Z,17.10
2023-05-09T12:10:20.410Z,17.00
2023-05-09T12:12:52.201Z,17.00
2023-05-09T12:15:20.117Z,16.90
2023-05-09T12:17:50.505Z,16.90
2023-05-09T12:20:18.489Z,16.90
2023-05-09T12:22:52.586Z,16.90
2023-05-09T12:25:19.190Z,16.90
2023-05-09T12:27:45.867Z,17.00
2023-05-09T12:30:15.946Z,17.10
2023-05-09T12:32:43.498Z,17.10
2023-05-09T12:35:10.609Z,17.20
2023-05-09T12:37:37.799Z,17.30
2023-05-09T12:40:15.447Z,17.40
2023-05-09T12:42:46.083Z,17.40
2023-05-09T12:45:13.339Z,17.40
2023-05-09T12:47:41.857Z,17.40
2023-05-09T12:50:12.281Z,17.50
2023-05-09T12:53:01.481Z,17.50
2023-05-09T12:55:30.288Z,17.50
2023-05-09T12:58:02.097Z,17.50
2023-05-09T13:00:29.654Z,17.50
2023-05-09T13:02:57.032Z,17.60
2023-05-09T13:05:24.330Z,17.60
2023-05-09T13:07:52.537Z,17.70
2023-05-09T13:10:23.630Z,17.70
2023-05-09T13:12:51.463Z,17.60
2023-05-09T13:15:20.592Z,17.50
2023-05-09T13:17:48.702Z,17.60
2023-05-09T13:20:16.526Z,17.60
2023-05-09T13:22:44.976Z,17.60
2023-05-09T13:25:12.108Z,17.70
2023-05-09T13:27:39.196Z,17.60
2023-05-09T13:30:09.395Z,17.60
2023-05-09T13:32:36.628Z,17.60
2023-05-09T13:35:06.550Z,17.60
2023-05-09T13:37:36.139Z,17.50
2023-05-09T13:40:03.344Z,17.40
2023-05-09T13:42:29.982Z,17.40
2023-05-09T13:44:56.710Z,17.40
2023-05-09T13:47:23.416Z,17.20
2023-05-09T13:49:50.057Z,17.20
2023-05-09T13:52:16.875Z,17.10
2023-05-09T13:54:43.680Z,17.20
2023-05-09T13:57:10.542Z,17.20
2023-05-09T13:59:37.665Z,17.30
2023-05-09T14:02:04.755Z,17.30
2023-05-09T14:04:32.035Z,17.40
2023-05-09T14:06:59.834Z,17.40
2023-05-09T14:09:27.011Z,17.30
2023-05-09T14:11:55.329Z,17.30
2023-05-09T14:14:24.038Z,17.30
2023-05-09T14:16:51.430Z,17.40
2023-05-09T14:19:18.047Z,17.40
2023-05-09T14:21:46.868Z,17.40
2023-05-09T14:24:16.129Z,17.40
2023-05-09T14:26:43.749Z,17.40
2023-05-09T14:29:10.604Z,17.40
2023-05-09T14:31:37.575Z,17.50
2023-05-09T14:34:05.340Z,17.50
2023-05-09T14:36:32.952Z,17.50
2023-05-09T14:38:59.651Z,17.50
2023-05-09T14:41:26.815Z,17.50
2023-05-09T14:43:53.468Z,17.60
2023-05-09T14:46:20.260Z,17.60
2023-05-09T14:48:46.947Z,17.60
2023-05-09T14:51:14.250Z,17.60
2023-05-09T14:53:41.892Z,17.60
2023-05-09T14:56:11.325Z,17.60
2023-05-09T14:58:38.127Z,17.60
2023-05-09T15:01:04.876Z,17.70
2023-05-09T15:03:31.938Z,17.60
2023-05-09T15:05:59.163Z,17.50
2023-05-09T15:08:26.201Z,17.40
2023-05-09T15:10:53.188Z,17.30
2023-05-09T15:13:20.055Z,17.40
2023-05-09T15:15:47.194Z,17.40
2023-05-09T15:18:16.346Z,17.30
2023-05-09T15:20:43.285Z,17.40
2023-05-09T15:23:10.696Z,17.40
2023-05-09T15:25:37.408Z,17.40
2023-05-09T15:28:04.321Z,17.40
2023-05-09T15:30:31.118Z,17.40
2023-05-09T15:32:59.138Z,17.40
2023-05-09T15:35:25.838Z,17.40
2023-05-09T15:37:52.576Z,17.30
2023-05-09T15:40:19.249Z,17.30
2023-05-09T15:42:48.121Z,17.30
2023-05-09T15:45:15.693Z,17.20
2023-05-09T15:47:42.515Z,17.20
2023-05-09T15:50:10.015Z,17.10
2023-05-09T15:52:36.755Z,17.10
2023-05-09T15:55:03.616Z,17.10
2023-05-09T15:57:30.560Z,17.20
2023-05-09T15:59:57.359Z,17.20
2023-05-09T16:02:24.764Z,17.20
2023-05-09T16:04:51.605Z,17.20
2023-05-09T16:07:19.518Z,17.20
2023-05-09T16:09:46.392Z,17.20
2023-05-09T16:12:13.704Z,17.20
2023-05-09T16:14:40.403Z,17.20
2023-05-09T16:17:07.092Z,17.10
2023-05-09T16:19:36.363Z,17.00
2023-05-09T16:22:03.091Z,17.00
2023-05-09T16:24:31.678Z,17.00
2023-05-09T16:26:58.502Z,17.00
2023-05-09T16:29:25.300Z,17.10
2023-05-09T16:31:52.521Z,17.10
2023-05-09T16:34:19.260Z,17.10
2023-05-09T16:36:47.345Z,17.10
2023-05-09T16:39:14.072Z,17.20
2023-05-09T16:41:40.692Z,17.10
2023-05-09T16:44:07.300Z,17.10
2023-05-09T16:46:34.019Z,17.10
2023-05-09T16:49:00.713Z,17.10
2023-05-09T16:51:27.831Z,17.10
2023-05-09T16:53:54.590Z,16.90
2023-05-09T16:56:22.475Z,16.90
2023-05-09T16:58:49.827Z,16.90
2023-05-09T17:01:16.455Z,16.80
2023-05-09T17:03:43.140Z,16.80
2023-05-09T17:06:10.307Z,16.80
2023-05-09T17:08:36.968Z,16.80
2023-05-09T17:11:04.524Z,16.90
2023-05-09T17:13:31.284Z,16.90
2023-05-09T17:15:58.177Z,16.90
2023-05-09T17:18:35.973Z,17.00
2023-05-09T17:21:04.056Z,16.90
2023-05-09T17:23:30.675Z,16.90
2023-05-09T17:25:57.374Z,16.90
2023-05-09T17:28:24.014Z,16.90
2023-05-09T17:30:50.689Z,16.80
2023-05-09T17:33:17.434Z,16.80
2023-05-09T17:35:44.136Z,16.80
2023-05-09T17:38:10.867Z,16.80
2023-05-09T17:40:38.019Z,16.70
2023-05-09T17:43:04.676Z,16.60
2023-05-09T17:45:31.372Z,16.60
2023-05-09T17:47:59.710Z,16.70
2023-05-09T17:50:26.797Z,16.70
2023-05-09T17:52:54.213Z,16.70
2023-05-09T17:55:22.378Z,16.80
2023-05-09T17:57:49.028Z,16.70
2023-05-09T18:00:16.420Z,16.70
2023-05-09T18:02:43.739Z,16.80
2023-05-09T18:05:11.152Z,16.80
2023-05-09T18:07:39.050Z,16.80
2023-05-09T18:10:06.480Z,16.80
2023-05-09T18:12:36.772Z,16.80
2023-05-09T18:15:04.824Z,16.70
2023-05-09T18:17:31.588Z,16.70
2023-05-09T18:19:58.351Z,16.80
2023-05-09T18:22:25.035Z,16.80
2023-05-09T18:24:52.907Z,16.80
2023-05-09T18:27:19.556Z,16.80
2023-05-09T18:29:47.421Z,16.70
2023-05-09T18:32:14.239Z,16.70
2023-05-09T18:34:41.632Z,16.70
2023-05-09T18:37:08.921Z,16.70
2023-05-09T18:39:35.561Z,16.70
2023-05-09T18:42:02.415Z,16.60
2023-05-09T18:44:30.171Z,16.70
2023-05-09T18:46:57.845Z,16.70
2023-05-09T18:49:27.479Z,16.60
2023-05-09T18:51:55.072Z,16.60
2023-05-09T18:54:21.812Z,16.70
2023-05-09T18:56:49.479Z,16.70
2023-05-09T18:59:17.216Z,16.70
2023-05-09T19:01:44.146Z,16.70
2023-05-09T19:04:11.036Z,16.60
2023-05-09T19:06:37.889Z,16.50
2023-05-09T19:09:04.693Z,16.60
2023-05-09T19:11:31.668Z,16.60
2023-05-09T19:13:58.378Z,16.60
2023-05-09T19:16:26.464Z,16.50
2023-05-09T19:18:57.738Z,16.50
2023-05-09T19:21:25.505Z,16.40
2023-05-09T19:23:52.235Z,16.40
2023-05-09T19:26:19.646Z,16.40
2023-05-09T19:28:47.020Z,16.40
2023-05-09T19:31:14.924Z,16.40
2023-05-09T19:33:45.218Z,16.40
2023-05-09T19:36:11.962Z,16.40
2023-05-09T19:38:38.767Z,16.30
2023-05-09T19:41:05.482Z,16.30
2023-05-09T19:43:32.545Z,16.30
2023-05-09T19:45:59.926Z,16.30
2023-05-09T19:48:26.803Z,16.20
2023-05-09T19:50:56.753Z,16.20
2023-05-09T19:53:23.448Z,16.20
2023-05-09T19:55:50.034Z,16.20
2023-05-09T19:58:17.733Z,16.20
2023-05-09T20:00:45.082Z,16.20
2023-05-09T20:03:12.007Z,16.20
2023-05-09T20:05:43.751Z,16.20
2023-05-09T20:08:10.400Z,16.10
2023-05-09T20:10:37.452Z,16.10
2023-05-09T20:13:04.480Z,16.00
2023-05-09T20:15:31.261Z,15.90
2023-05-09T20:17:58.324Z,15.80
2023-05-09T20:20:25.191Z,15.80
2023-05-09T20:22:51.922Z,15.80
2023-05-09T20:25:18.652Z,15.80
2023-05-09T20:27:45.465Z,15.90
2023-05-09T20:30:12.388Z,15.80
2023-05-09T20:32:39.195Z,15.80
2023-05-09T20:35:06.249Z,15.80
2023-05-09T20:37:32.972Z,15.80
2023-05-09T20:40:01.354Z,15.80
2023-05-09T20:42:28.000Z,15.70
2023-05-09T20:44:55.116Z,15.80
2023-05-09T20:47:21.960Z,15.80
2023-05-09T20:49:48.675Z,15.80
2023-05-09T20:52:15.402Z,15.80
2023-05-09T20:54:42.345Z,15.80
2023-05-09T20:57:09.002Z,15.80
2023-05-09T20:59:35.640Z,15.70
2023-05-09T21:02:02.719Z,15.70
2023-05-09T21:04:29.421Z,15.70
2023-05-09T21:06:56.166Z,15.60
2023-05-09T21:09:23.136Z,15.50
2023-05-09T21:11:49.797Z,15.60
2023-05-09T21:14:16.502Z,15.60
2023-05-09T21:16:44.020Z,15.70
2023-05-09T21:19:10.865Z,15.60
2023-05-09T21:21:37.574Z,15.70
2023-05-09T21:24:08.889Z,15.70
2023-05-09T21:26:36.370Z,15.60
2023-05-09T21:29:03.065Z,15.60
2023-05-09T21:31:29.810Z,15.60
2023-05-09T21:33:56.558Z,15.60
2023-05-09T21:36:23.216Z,15.60
2023-05-09T21:38:49.994Z,15.60
2023-05-09T21:41:16.948Z,15.50
2023-05-09T21:43:43.621Z,15.50
2023-05-09T21:46:10.580Z,15.50
2023-05-09T21:48:37.304Z,15.50
2023-05-09T21:51:04.485Z,15.50
2023-05-09T21:53:31.247Z,15.50
2023-05-09T21:55:57.910Z,15.50
2023-05-09T21:58:24.598Z,15.50
2023-05-09T22:00:51.298Z,15.50
2023-05-09T22:03:17.941Z,15.40
2023-05-09T22:05:44.657Z,15.50
2023-05-09T22:08:11.328Z,15.40
2023-05-09T22:10:37.959Z,15.50
2023-05-09T22:13:04.731Z,15.50
2023-05-09T22:15:31.459Z,15.50
2023-05-09T22:17:58.125Z,15.50
2023-05-09T22:20:24.901Z,15.40
2023-05-09T22:22:51.510Z,15.40
2023-05-09T22:25:18.275Z,15.40
2023-05-09T22:27:44.978Z,15.40
2023-05-09T22:30:12.505Z,15.50
2023-05-09T22:32:40.048Z,15.40
2023-05-09T22:35:07.209Z,15.50
2023-05-09T22:37:33.877Z,15.50
2023-05-09T22:40:03.245Z,15.50
2023-05-09T22:42:29.841Z,15.50
2023-05-09T22:44:56.601Z,15.40
2023-05-09T22:47:23.280Z,15.40
2023-05-09T22:49:50.296Z,15.40
2023-05-09T22:52:17.367Z,15.30
2023-05-09T22:54:44.368Z,15.30
2023-05-09T22:57:11.517Z,15.30
2023-05-09T22:59:38.606Z,15.30
2023-05-09T23:02:05.849Z,15.30
2023-05-09T23:04:32.504Z,15.30
2023-05-09T23:06:59.130Z,15.30
2023-05-09T23:09:25.989Z,15.20
2023-05-09T23:11:52.804Z,15.20
2023-05-09T23:14:19.697Z,15.20
2023-05-09T23:16:46.460Z,15.20
2023-05-09T23:19:13.043Z,15.20
2023-05-09T23:21:39.772Z,15.20
2023-05-09T23:24:06.726Z,15.20
2023-05-09T23:26:33.422Z,15.20
2023-05-09T23:29:00.120Z,15.20
2023-05-09T23:31:26.776Z,15.20
2023-05-09T23:33:53.499Z,15.20
2023-05-09T23:36:20.109Z,15.20
2023-05-09T23:38:46.762Z,15.20
2023-05-09T23:41:13.554Z,15.20
2023-05-09T23:43:40.175Z,15.20
2023-05-09T23:46:06.900Z,15.20
2023-05-09T23:48:33.613Z,15.20
2023-05-09T23:51:00.489Z,15.20
2023-05-09T23:53:27.215Z,15.20
2023-05-09T23:55:53.802Z,15.20
2023-05-09T23:58:21.095Z,15.10
